Airfield :
LOGIN :

Register | Disclaimer

   EN    FR    IT 

 










Legend :    VFR   Marginal VFR   IFR   Intensive IFR   Very Intensive IFR
Visi :
Ceiling :
>= 8 km
>= 3000ft
5 to 8 km
1000 to 3000 ft
1500m to 5 km
500 to 1000 ft
800 to 1500m
200 to 500 ft
< 800m
< 200 ft
Symbols :   Thunderstorms  Fog  Heavy snow  Heavy precipitations  Wind > 20 kt
SIGMETs :     Misc.  Thunderstorms  Icing  Turbulence  Mountain Waves  Volcanic Ashes







- Airport Elevation : 138 ft
- IATA code : RLG


ETNL - Rostock Laage

CURRENT METAR :
  • 190220Z 25014G24KT 9999 FEW009CB BKN012 04/03 Q1003 RESHRA GRN

EXPIRED METARs :
  • 190145Z 24014KT 7000 SHRA BKN009CB 04/03 Q1003 GRN
  • 190120Z 24012KT 8000 BKN010CB 04/03 Q1004 RESHRA GRN
  • 190038Z 25015KT 9999 -SHRA BKN010TCU 04/02 Q1004 GRN
  • 190020Z 25014KT 9999 FEW009 SCT018 04/02 Q1004 BLU+

TAF TAF ETNL
Valid from the 19 at 00:00 until the 19 at 12:00 UTC


182300Z 1900/1912 25010KT 9999 NSW BKN025
TEMPO 1900/1912 27015G25KT 3000 SHRAGS BKN012CB BY ETGL
No reported NOTAMs for that airfield.



MET'MAP, your aeronautical weather chart ! - Copyright ORBIFLY December 2007 - Disclaimer

ORBIFLY MET'MAP TEAM :

Programming & Development : Alexandra Zaïnal
Concept & Development : Baudouin d'Aumeries
Co-Development & Prog : Marc-Olivier Méhu
Technical & hardware support : Manuel Goepfert

Contact : metmap@orbifly.com




SOURCES & CREDITS :

   NOAA